createdAt,value
2022-12-03T00:02:18.106Z,56.13
2022-12-03T00:04:44.783Z,56.02
2022-12-03T00:07:11.393Z,55.99
2022-12-03T00:09:37.863Z,55.74
2022-12-03T00:12:04.625Z,55.73
2022-12-03T00:14:31.131Z,55.94
2022-12-03T00:16:57.610Z,56.07
2022-12-03T00:19:24.147Z,55.87
2022-12-03T00:21:50.689Z,55.70
2022-12-03T00:24:17.736Z,55.94
2022-12-03T00:26:44.366Z,55.67
2022-12-03T00:29:11.329Z,55.99
2022-12-03T00:31:37.905Z,55.72
2022-12-03T00:34:04.500Z,55.86
2022-12-03T00:36:31.041Z,55.87
2022-12-03T00:38:57.517Z,55.76
2022-12-03T00:41:24.081Z,55.68
2022-12-03T00:43:50.585Z,55.72
2022-12-03T00:46:21.375Z,55.47
2022-12-03T00:48:48.362Z,55.59
2022-12-03T00:51:14.902Z,55.79
2022-12-03T00:53:41.473Z,55.31
2022-12-03T00:56:08.288Z,55.24
2022-12-03T00:58:34.981Z,55.57
2022-12-03T01:01:01.542Z,55.62
2022-12-03T01:03:28.321Z,55.27
2022-12-03T01:05:54.900Z,55.56
2022-12-03T01:08:21.497Z,55.33
2022-12-03T01:10:47.993Z,55.65
2022-12-03T01:13:14.568Z,55.50
2022-12-03T01:15:41.204Z,55.35
2022-12-03T01:18:07.712Z,55.19
2022-12-03T01:20:36.239Z,55.48
2022-12-03T01:23:02.813Z,55.10
2022-12-03T01:25:29.353Z,55.57
2022-12-03T01:27:55.930Z,55.56
2022-12-03T01:30:22.549Z,55.24
2022-12-03T01:32:49.269Z,55.53
2022-12-03T01:35:15.827Z,55.42
2022-12-03T01:37:42.394Z,55.55
2022-12-03T01:40:11.856Z,55.56
2022-12-03T01:42:41.127Z,55.54
2022-12-03T01:45:11.919Z,55.14
2022-12-03T01:47:38.622Z,55.49
2022-12-03T01:50:27.532Z,55.66
2022-12-03T01:52:55.724Z,55.16
2022-12-03T01:55:23.684Z,55.30
2022-12-03T01:57:51.841Z,55.66
2022-12-03T02:00:23.977Z,55.41
2022-12-03T02:02:54.971Z,55.59
2022-12-03T02:05:24.962Z,55.58
2022-12-03T02:07:53.243Z,55.64
2022-12-03T02:10:23.817Z,55.74
2022-12-03T02:13:06.061Z,55.55
2022-12-03T02:15:32.651Z,55.50
2022-12-03T02:17:59.465Z,55.76
2022-12-03T02:20:26.445Z,55.05
2022-12-03T02:23:03.475Z,55.45
2022-12-03T02:25:32.865Z,55.48
2022-12-03T02:27:59.977Z,55.40
2022-12-03T02:30:28.356Z,55.43
2022-12-03T02:32:56.456Z,55.82
2022-12-03T02:35:28.988Z,55.56
2022-12-03T02:37:59.363Z,55.42
2022-12-03T02:40:29.170Z,55.47
2022-12-03T02:42:59.139Z,55.35
2022-12-03T02:45:28.883Z,55.60
2022-12-03T02:48:07.990Z,55.76
2022-12-03T02:50:41.673Z,55.62
2022-12-03T02:53:12.245Z,55.59
2022-12-03T02:55:39.098Z,55.76
2022-12-03T02:58:06.218Z,55.89
2022-12-03T03:00:33.653Z,55.80
2022-12-03T03:03:01.326Z,55.80
2022-12-03T03:05:28.083Z,55.71
2022-12-03T03:07:55.165Z,55.71
2022-12-03T03:10:22.911Z,55.55
2022-12-03T03:12:50.063Z,55.87
2022-12-03T03:15:16.710Z,55.83
2022-12-03T03:17:43.419Z,55.74
2022-12-03T03:20:10.572Z,55.69
2022-12-03T03:22:39.724Z,55.73
2022-12-03T03:25:08.107Z,55.70
2022-12-03T03:27:34.500Z,55.74
2022-12-03T03:30:01.161Z,55.75
2022-12-03T03:32:28.375Z,55.67
2022-12-03T03:34:55.778Z,55.84
2022-12-03T03:37:22.674Z,55.90
2022-12-03T03:39:49.417Z,56.14
2022-12-03T03:42:16.157Z,55.92
2022-12-03T03:44:42.725Z,55.76
2022-12-03T03:47:09.533Z,55.87
2022-12-03T03:49:36.422Z,56.13
2022-12-03T03:52:03.457Z,55.83
2022-12-03T03:54:30.535Z,55.90
2022-12-03T03:56:57.297Z,56.07
2022-12-03T03:59:23.856Z,56.25
2022-12-03T04:01:50.410Z,55.84
2022-12-03T04:04:22.704Z,55.87
2022-12-03T04:06:49.347Z,55.78
2022-12-03T04:09:16.070Z,55.65
2022-12-03T04:12:01.149Z,55.77
2022-12-03T04:14:27.715Z,55.35
2022-12-03T04:16:54.302Z,55.80
2022-12-03T04:19:20.816Z,55.75
2022-12-03T04:22:05.668Z,55.68
2022-12-03T04:24:32.160Z,55.79
2022-12-03T04:27:17.269Z,55.54
2022-12-03T04:29:43.840Z,55.48
2022-12-03T04:32:28.669Z,56.00
2022-12-03T04:35:13.740Z,55.43
2022-12-03T04:37:40.930Z,55.70
2022-12-03T04:40:27.983Z,55.65
2022-12-03T04:42:54.517Z,55.53
2022-12-03T04:45:21.073Z,55.48
2022-12-03T04:47:47.616Z,55.65
2022-12-03T04:50:14.157Z,55.41
2022-12-03T04:52:40.866Z,55.69
2022-12-03T04:55:07.797Z,55.17
2022-12-03T04:57:34.330Z,55.55
2022-12-03T05:00:00.866Z,55.61
2022-12-03T05:02:27.481Z,55.58
2022-12-03T05:04:54.299Z,55.64
2022-12-03T05:07:21.086Z,55.55
2022-12-03T05:09:47.646Z,55.69
2022-12-03T05:12:14.191Z,55.44
2022-12-03T05:14:40.760Z,55.51
2022-12-03T05:17:07.307Z,55.43
2022-12-03T05:19:52.474Z,55.47
2022-12-03T05:22:18.963Z,55.49
2022-12-03T05:24:45.521Z,55.72
2022-12-03T05:27:12.095Z,55.59
2022-12-03T05:29:38.680Z,55.42
2022-12-03T05:32:05.465Z,55.48
2022-12-03T05:34:32.024Z,55.45
2022-12-03T05:36:58.594Z,55.41
2022-12-03T05:39:25.612Z,55.17
2022-12-03T05:42:10.522Z,55.48
2022-12-03T05:44:37.052Z,55.32
2022-12-03T05:47:03.575Z,55.14
2022-12-03T05:49:30.069Z,55.44
2022-12-03T05:51:58.666Z,55.48
2022-12-03T05:54:25.749Z,55.28
2022-12-03T05:56:52.239Z,55.38
2022-12-03T05:59:18.798Z,55.45
2022-12-03T06:01:45.376Z,55.44
2022-12-03T06:04:11.970Z,55.28
2022-12-03T06:06:38.543Z,55.59
2022-12-03T06:09:05.372Z,55.55
2022-12-03T06:11:34.124Z,55.46
2022-12-03T06:14:01.161Z,55.31
2022-12-03T06:16:27.733Z,55.83
2022-12-03T06:18:54.363Z,55.23
2022-12-03T06:21:20.936Z,55.38
2022-12-03T06:23:47.495Z,55.50
2022-12-03T06:26:14.429Z,55.34
2022-12-03T06:28:45.527Z,55.55
2022-12-03T06:31:12.971Z,55.57
2022-12-03T06:33:39.619Z,55.46
2022-12-03T06:36:06.631Z,55.59
2022-12-03T06:38:33.190Z,55.50
2022-12-03T06:40:59.747Z,55.32
2022-12-03T06:43:26.284Z,55.33
2022-12-03T06:45:52.990Z,55.42
2022-12-03T06:48:19.550Z,55.46
2022-12-03T06:50:46.157Z,55.53
2022-12-03T06:53:12.734Z,55.24
2022-12-03T06:55:39.289Z,55.03
2022-12-03T06:58:05.771Z,55.40
2022-12-03T07:00:32.269Z,55.14
2022-12-03T07:02:58.841Z,55.06
2022-12-03T07:05:25.480Z,55.07
2022-12-03T07:07:55.259Z,55.01
2022-12-03T07:10:22.271Z,54.80
2022-12-03T07:12:48.828Z,54.98
2022-12-03T07:15:15.417Z,54.84
2022-12-03T07:17:41.972Z,54.76
2022-12-03T07:20:08.976Z,54.83
2022-12-03T07:22:35.546Z,54.94
2022-12-03T07:25:02.092Z,54.59
2022-12-03T07:27:28.631Z,54.63
2022-12-03T07:29:55.140Z,54.72
2022-12-03T07:32:21.621Z,54.42
2022-12-03T07:34:48.173Z,54.62
2022-12-03T07:37:18.639Z,54.48
2022-12-03T07:39:48.021Z,54.54
2022-12-03T07:42:14.590Z,54.64
2022-12-03T07:44:41.160Z,54.41
2022-12-03T07:47:07.814Z,54.40
2022-12-03T07:49:34.395Z,54.34
2022-12-03T07:52:00.898Z,54.26
2022-12-03T07:54:27.552Z,54.39
2022-12-03T07:56:59.623Z,54.31
2022-12-03T07:59:27.946Z,54.33
2022-12-03T08:01:54.524Z,54.19
2022-12-03T08:04:21.452Z,54.36
2022-12-03T08:06:48.240Z,54.24
2022-12-03T08:09:16.356Z,54.25
2022-12-03T08:11:45.085Z,54.14
2022-12-03T08:14:13.557Z,54.22
2022-12-03T08:16:40.659Z,54.04
2022-12-03T08:19:15.621Z,54.01
2022-12-03T08:21:42.188Z,54.14
2022-12-03T08:24:13.609Z,54.06
2022-12-03T08:26:40.757Z,53.89
2022-12-03T08:29:18.993Z,53.90
2022-12-03T08:31:52.146Z,53.68
2022-12-03T08:34:27.774Z,53.50
2022-12-03T08:37:08.403Z,53.36
2022-12-03T08:39:39.242Z,53.00
2022-12-03T08:42:31.118Z,52.83
2022-12-03T08:45:39.407Z,52.99
2022-12-03T08:48:27.312Z,53.20
2022-12-03T08:50:58.088Z,53.18
2022-12-03T08:53:27.671Z,53.32
2022-12-03T08:55:57.141Z,53.36
2022-12-03T08:58:40.844Z,53.49
2022-12-03T09:01:10.607Z,53.39
2022-12-03T09:03:39.580Z,53.38
2022-12-03T09:06:06.483Z,53.32
2022-12-03T09:08:33.028Z,53.07
2022-12-03T09:10:59.656Z,52.93
2022-12-03T09:13:26.171Z,52.93
2022-12-03T09:15:52.729Z,52.93
2022-12-03T09:18:19.228Z,52.65
2022-12-03T09:20:45.783Z,52.85
2022-12-03T09:23:12.300Z,52.86
2022-12-03T09:25:38.778Z,52.71
2022-12-03T09:28:05.553Z,53.01
2022-12-03T09:30:32.106Z,52.99
2022-12-03T09:32:59.987Z,53.12
2022-12-03T09:35:27.287Z,53.25
2022-12-03T09:37:53.880Z,53.34
2022-12-03T09:40:20.892Z,53.48
2022-12-03T09:42:47.511Z,53.46
2022-12-03T09:45:15.261Z,53.56
2022-12-03T09:47:44.321Z,53.64
2022-12-03T09:50:14.334Z,53.67
2022-12-03T09:52:40.928Z,53.67
2022-12-03T09:55:19.496Z,53.85
2022-12-03T09:57:46.060Z,53.91
2022-12-03T10:00:18.543Z,53.91
2022-12-03T10:02:46.899Z,53.95
2022-12-03T10:05:13.993Z,54.01
2022-12-03T10:07:41.102Z,54.14
2022-12-03T10:10:15.525Z,54.07
2022-12-03T10:12:42.090Z,54.05
2022-12-03T10:15:13.857Z,54.10
2022-12-03T10:17:40.805Z,53.41
2022-12-03T10:20:11.476Z,53.24
2022-12-03T10:22:38.065Z,52.85
2022-12-03T10:25:10.458Z,53.19
2022-12-03T10:27:37.076Z,53.26
2022-12-03T10:30:14.686Z,53.31
2022-12-03T10:32:49.282Z,53.38
2022-12-03T10:35:18.713Z,53.48
2022-12-03T10:38:02.408Z,53.64
2022-12-03T10:40:39.155Z,53.58
2022-12-03T10:43:17.848Z,53.37
2022-12-03T10:45:45.439Z,53.55
2022-12-03T10:48:17.773Z,53.39
2022-12-03T10:50:49.906Z,53.29
2022-12-03T10:53:17.444Z,53.47
2022-12-03T10:55:45.424Z,53.45
2022-12-03T10:58:23.806Z,53.52
2022-12-03T11:00:52.190Z,53.41
2022-12-03T11:03:28.286Z,53.55
2022-12-03T11:05:56.161Z,53.70
2022-12-03T11:08:27.860Z,53.73
2022-12-03T11:11:03.361Z,53.18
2022-12-03T11:13:32.606Z,53.64
2022-12-03T11:16:03.355Z,53.76
2022-12-03T11:18:50.177Z,53.70
2022-12-03T11:21:17.476Z,53.89
2022-12-03T11:23:46.686Z,53.74
2022-12-03T11:26:18.985Z,53.66
2022-12-03T11:28:46.203Z,53.24
2022-12-03T11:31:38.893Z,53.06
2022-12-03T11:34:20.830Z,53.06
2022-12-03T11:37:09.255Z,53.06
2022-12-03T11:39:45.143Z,53.18
2022-12-03T11:42:26.643Z,53.10
2022-12-03T11:45:11.190Z,53.19
2022-12-03T11:47:47.455Z,53.19
2022-12-03T11:50:39.033Z,53.45
2022-12-03T11:53:13.771Z,53.37
2022-12-03T11:55:48.345Z,53.48
2022-12-03T11:58:28.902Z,53.43
2022-12-03T12:00:58.339Z,53.43
2022-12-03T12:03:27.687Z,53.42
2022-12-03T12:06:11.733Z,53.34
2022-12-03T12:08:51.605Z,53.54
2022-12-03T12:11:27.221Z,53.88
2022-12-03T12:13:56.420Z,53.39
2022-12-03T12:16:42.214Z,53.91
2022-12-03T12:19:28.136Z,53.75
2022-12-03T12:21:55.323Z,53.76
2022-12-03T12:24:40.530Z,53.52
2022-12-03T12:27:09.800Z,53.68
2022-12-03T12:29:37.730Z,53.82
2022-12-03T12:32:10.649Z,53.87
2022-12-03T12:34:41.444Z,53.65
2022-12-03T12:37:22.998Z,53.90
2022-12-03T12:39:53.617Z,53.72
2022-12-03T12:42:37.663Z,53.94
2022-12-03T12:45:15.747Z,53.83
2022-12-03T12:47:49.245Z,53.91
2022-12-03T12:50:18.304Z,53.66
2022-12-03T12:53:26.578Z,53.86
2022-12-03T12:56:06.279Z,54.05
2022-12-03T12:58:33.268Z,54.31
2022-12-03T13:01:05.170Z,53.94
2022-12-03T13:03:37.418Z,54.06
2022-12-03T13:06:04.165Z,53.54
2022-12-03T13:08:40.540Z,53.12
2022-12-03T13:11:31.969Z,52.61
2022-12-03T13:13:58.565Z,52.31
2022-12-03T13:16:31.584Z,51.75
2022-12-03T13:18:59.539Z,51.57
2022-12-03T13:21:44.221Z,51.57
2022-12-03T13:24:34.004Z,51.87
2022-12-03T13:27:07.566Z,51.81
2022-12-03T13:29:34.122Z,51.98
2022-12-03T13:32:03.240Z,51.57
2022-12-03T13:34:33.906Z,52.52
2022-12-03T13:37:01.505Z,51.97
2022-12-03T13:39:35.143Z,51.67
2022-12-03T13:42:26.563Z,51.78
2022-12-03T13:44:53.457Z,51.31
2022-12-03T13:47:22.348Z,50.98
2022-12-03T13:49:52.061Z,50.90
2022-12-03T13:52:24.325Z,51.41
2022-12-03T13:54:52.983Z,50.86
2022-12-03T13:57:22.035Z,51.01
2022-12-03T13:59:48.903Z,51.25
2022-12-03T14:02:15.661Z,51.13
2022-12-03T14:04:42.299Z,50.79
2022-12-03T14:07:08.859Z,50.89
2022-12-03T14:09:35.415Z,51.39
2022-12-03T14:12:20.497Z,51.17
2022-12-03T14:14:47.058Z,51.02
2022-12-03T14:17:13.756Z,50.96
2022-12-03T14:19:40.353Z,51.18
2022-12-03T14:22:09.270Z,51.40
2022-12-03T14:24:37.117Z,52.05
2022-12-03T14:27:03.759Z,51.67
2022-12-03T14:29:30.387Z,51.62
2022-12-03T14:31:57.196Z,51.49
2022-12-03T14:34:23.734Z,52.09
2022-12-03T14:36:50.486Z,52.51
2022-12-03T14:39:17.143Z,52.52
2022-12-03T14:42:02.216Z,53.13
2022-12-03T14:44:28.803Z,52.71
2022-12-03T14:46:57.499Z,52.62
2022-12-03T14:49:24.382Z,52.88
2022-12-03T14:51:50.934Z,53.15
2022-12-03T14:54:17.612Z,50.54
2022-12-03T14:56:44.217Z,48.33
2022-12-03T14:59:10.825Z,49.38
2022-12-03T15:01:37.527Z,49.86
2022-12-03T15:04:04.199Z,49.40
2022-12-03T15:06:30.770Z,49.86
2022-12-03T15:08:57.347Z,49.51
2022-12-03T15:11:23.929Z,49.03
2022-12-03T15:13:50.531Z,49.86
2022-12-03T15:16:17.169Z,50.64
2022-12-03T15:18:45.348Z,49.88
2022-12-03T15:21:11.940Z,49.91
2022-12-03T15:23:38.588Z,49.36
2022-12-03T15:26:05.287Z,49.21
2022-12-03T15:28:31.823Z,49.16
2022-12-03T15:30:58.665Z,48.83
2022-12-03T15:33:25.621Z,49.51
2022-12-03T15:35:52.181Z,48.83
2022-12-03T15:38:19.336Z,49.38
2022-12-03T15:40:45.978Z,49.26
2022-12-03T15:43:12.647Z,49.08
2022-12-03T15:45:39.255Z,49.41
2022-12-03T15:48:06.016Z,48.96
2022-12-03T15:50:38.452Z,48.52
2022-12-03T15:53:06.584Z,48.67
2022-12-03T15:55:33.217Z,48.88
2022-12-03T15:57:59.758Z,49.46
2022-12-03T16:00:26.320Z,48.75
2022-12-03T16:02:53.298Z,49.27
2022-12-03T16:05:20.180Z,48.89
2022-12-03T16:07:46.787Z,49.35
2022-12-03T16:10:13.560Z,49.24
2022-12-03T16:12:40.238Z,49.12
2022-12-03T16:15:06.973Z,48.35
2022-12-03T16:17:33.748Z,48.79
2022-12-03T16:20:15.429Z,48.76
2022-12-03T16:22:42.077Z,48.65
2022-12-03T16:25:08.732Z,48.96
2022-12-03T16:27:37.003Z,48.90
2022-12-03T16:30:06.591Z,49.37
2022-12-03T16:32:33.167Z,49.76
2022-12-03T16:34:59.686Z,49.34
2022-12-03T16:37:26.285Z,48.95
2022-12-03T16:39:53.089Z,49.52
2022-12-03T16:42:19.801Z,49.08
2022-12-03T16:45:04.612Z,49.09
2022-12-03T16:47:34.171Z,49.32
2022-12-03T16:50:07.456Z,49.34
2022-12-03T16:52:34.503Z,48.91
2022-12-03T16:55:01.047Z,49.26
2022-12-03T16:57:33.116Z,48.84
2022-12-03T17:00:00.256Z,48.56
2022-12-03T17:02:27.452Z,48.18
2022-12-03T17:04:54.338Z,47.94
2022-12-03T17:07:20.892Z,48.47
2022-12-03T17:09:47.484Z,48.13
2022-12-03T17:12:14.059Z,48.21
2022-12-03T17:14:40.559Z,48.30
2022-12-03T17:17:07.109Z,48.39
2022-12-03T17:19:33.688Z,48.30
2022-12-03T17:22:00.255Z,49.06
2022-12-03T17:24:26.908Z,48.94
2022-12-03T17:26:53.430Z,49.24
2022-12-03T17:29:19.909Z,49.83
2022-12-03T17:31:46.539Z,50.11
2022-12-03T17:34:13.153Z,50.03
2022-12-03T17:36:39.676Z,50.49
2022-12-03T17:39:06.280Z,50.59
2022-12-03T17:41:35.204Z,50.67
2022-12-03T17:44:04.805Z,51.00
2022-12-03T17:46:35.743Z,51.12
2022-12-03T17:49:02.347Z,51.40
2022-12-03T17:51:29.056Z,51.41
2022-12-03T17:53:55.650Z,51.70
2022-12-03T17:56:22.153Z,51.74
2022-12-03T17:58:48.899Z,51.97
2022-12-03T18:01:15.565Z,51.86
2022-12-03T18:03:44.562Z,52.12
2022-12-03T18:06:11.190Z,52.30
2022-12-03T18:08:37.751Z,52.23
2022-12-03T18:11:04.409Z,52.71
2022-12-03T18:13:30.904Z,53.12
2022-12-03T18:15:57.596Z,52.45
2022-12-03T18:18:24.211Z,52.68
2022-12-03T18:20:52.693Z,52.71
2022-12-03T18:23:19.358Z,52.94
2022-12-03T18:25:45.922Z,53.07
2022-12-03T18:28:12.474Z,52.97
2022-12-03T18:30:39.119Z,53.15
2022-12-03T18:33:05.788Z,52.83
2022-12-03T18:35:32.439Z,52.97
2022-12-03T18:37:59.004Z,53.14
2022-12-03T18:40:27.175Z,53.13
2022-12-03T18:42:54.093Z,53.23
2022-12-03T18:45:20.668Z,53.62
2022-12-03T18:47:47.440Z,53.28
2022-12-03T18:50:14.640Z,53.45
2022-12-03T18:52:41.227Z,53.46
2022-12-03T18:55:08.481Z,53.78
2022-12-03T18:57:35.012Z,53.68
2022-12-03T19:00:10.314Z,53.97
2022-12-03T19:03:01.945Z,53.73
2022-12-03T19:05:26.389Z,53.76
2022-12-03T19:07:55.108Z,53.90
2022-12-03T19:10:22.166Z,53.89
2022-12-03T19:12:49.802Z,53.84
2022-12-03T19:15:16.807Z,53.68
2022-12-03T19:17:48.066Z,53.99
2022-12-03T19:20:14.913Z,53.81
2022-12-03T19:22:41.488Z,54.19
2022-12-03T19:25:08.266Z,54.62
2022-12-03T19:27:34.784Z,54.51
2022-12-03T19:30:01.340Z,54.37
2022-12-03T19:32:27.905Z,54.60
2022-12-03T19:34:54.584Z,54.34
2022-12-03T19:37:21.166Z,54.62
2022-12-03T19:39:47.803Z,54.84
2022-12-03T19:42:14.375Z,54.53
2022-12-03T19:44:40.953Z,55.09
2022-12-03T19:47:07.486Z,54.96
2022-12-03T19:49:34.052Z,54.71
2022-12-03T19:52:00.598Z,54.59
2022-12-03T19:54:27.154Z,54.37
2022-12-03T19:56:53.679Z,53.98
2022-12-03T19:59:20.239Z,53.56
2022-12-03T20:01:46.979Z,53.69
2022-12-03T20:04:13.699Z,54.00
2022-12-03T20:06:40.362Z,53.13
2022-12-03T20:09:12.347Z,53.26
2022-12-03T20:11:40.395Z,53.55
2022-12-03T20:14:10.273Z,53.31
2022-12-03T20:16:37.038Z,53.41
2022-12-03T20:19:05.759Z,53.09
2022-12-03T20:21:34.245Z,52.78
2022-12-03T20:24:01.036Z,52.74
2022-12-03T20:26:27.839Z,52.65
2022-12-03T20:28:55.191Z,52.55
2022-12-03T20:31:23.458Z,52.36
2022-12-03T20:33:51.797Z,52.77
2022-12-03T20:36:18.816Z,52.49
2022-12-03T20:38:45.509Z,51.98
2022-12-03T20:41:14.680Z,52.28
2022-12-03T20:43:41.330Z,51.97
2022-12-03T20:46:13.276Z,50.70
2022-12-03T20:48:40.601Z,51.32
2022-12-03T20:51:10.118Z,51.60
2022-12-03T20:53:37.234Z,52.20
2022-12-03T20:56:05.605Z,52.18
2022-12-03T20:58:32.210Z,52.05
2022-12-03T21:01:16.730Z,51.72
2022-12-03T21:03:44.289Z,52.08
2022-12-03T21:06:11.842Z,52.10
2022-12-03T21:08:41.900Z,52.10
2022-12-03T21:11:10.770Z,52.04
2022-12-03T21:13:41.047Z,52.07
2022-12-03T21:16:09.334Z,51.51
2022-12-03T21:18:35.918Z,51.66
2022-12-03T21:21:03.208Z,51.70
2022-12-03T21:23:30.738Z,52.37
2022-12-03T21:26:11.864Z,51.80
2022-12-03T21:28:39.559Z,51.53
2022-12-03T21:31:08.908Z,51.69
2022-12-03T21:33:36.239Z,51.58
2022-12-03T21:36:04.625Z,51.70
2022-12-03T21:38:31.414Z,51.73
2022-12-03T21:40:58.649Z,51.17
2022-12-03T21:43:25.775Z,51.56
2022-12-03T21:45:52.675Z,51.22
2022-12-03T21:48:19.838Z,51.49
2022-12-03T21:50:46.897Z,51.27
2022-12-03T21:53:13.405Z,51.14
2022-12-03T21:55:40.794Z,51.58
2022-12-03T21:58:08.238Z,51.50
2022-12-03T22:00:35.065Z,51.55
2022-12-03T22:03:01.803Z,51.01
2022-12-03T22:05:28.393Z,51.42
2022-12-03T22:07:54.916Z,51.60
2022-12-03T22:10:21.533Z,51.91
2022-12-03T22:12:48.063Z,51.21
2022-12-03T22:15:18.718Z,51.16
2022-12-03T22:17:45.800Z,51.58
2022-12-03T22:20:12.468Z,51.44
2022-12-03T22:22:39.079Z,50.94
2022-12-03T22:25:05.744Z,51.29
2022-12-03T22:27:32.409Z,50.58
2022-12-03T22:29:58.991Z,50.20
2022-12-03T22:32:25.701Z,50.48
2022-12-03T22:34:52.206Z,50.88
2022-12-03T22:37:18.739Z,50.84
2022-12-03T22:39:45.306Z,51.06
2022-12-03T22:42:11.806Z,50.94
2022-12-03T22:44:38.363Z,50.90
2022-12-03T22:47:04.987Z,50.58
2022-12-03T22:49:31.605Z,50.35
2022-12-03T22:51:58.112Z,50.33
2022-12-03T22:54:24.704Z,50.32
2022-12-03T22:56:51.252Z,50.46
2022-12-03T22:59:17.863Z,50.45
2022-12-03T23:01:44.508Z,50.23
2022-12-03T23:04:11.599Z,50.61
2022-12-03T23:06:38.488Z,50.38
2022-12-03T23:09:06.821Z,50.52
2022-12-03T23:11:33.283Z,50.80
2022-12-03T23:14:00.029Z,50.58
2022-12-03T23:16:29.910Z,51.10
2022-12-03T23:19:00.816Z,50.80
2022-12-03T23:21:30.499Z,50.90
2022-12-03T23:24:01.925Z,50.38
2022-12-03T23:26:28.989Z,51.17
2022-12-03T23:28:55.735Z,50.85
2022-12-03T23:31:27.286Z,50.40
2022-12-03T23:33:54.003Z,50.77
2022-12-03T23:36:21.085Z,50.39
2022-12-03T23:38:47.877Z,50.46
2022-12-03T23:41:16.575Z,50.04
2022-12-03T23:43:43.189Z,50.14
2022-12-03T23:46:16.814Z,49.32
2022-12-03T23:48:43.593Z,50.19
2022-12-03T23:51:12.622Z,50.32
2022-12-03T23:53:39.820Z,50.79
2022-12-03T23:56:08.317Z,51.17
2022-12-03T23:58:35.154Z,51.28
